Terminal Aerodrome Forecast
Issued by NWS

Home | Current Version | Previous Version | Graphics & Text | Print | Product List | Glossary On
Versions: 1 2 3 4 5 6 7 8 9 10 11 12 13
000
FTUS43 KICT 152327
TAFRSL
TAF
KRSL 152327Z 1600/1624 35015KT P6SM SCT200
     FM160300 01020G30KT P6SM BKN045
     FM161100 36016G26KT P6SM SCT150
     FM161500 36008KT P6SM SCT250
     FM161700 09005KT P6SM FEW250
     FM162000 16007KT P6SM FEW250=

USA.gov is the U.S. government's official web portal to all federal, state and local government web resources and services.